Time;durP1;ratioP1;P1;durP2;ratioP2;P2;SDS_P1;SDS_P2;PMS_P1;PMS_P2;Temp;Humidity;BMP_temperature;BMP_pressure;BME280_temperature;BME280_humidity;BME280_pressure;Samples;Min_cycle;Max_cycle;Signal;HPM_P1;HPM_P2
2022/07/07 00:00:29;;;;;;;4.47;1.65;;;14.60;99.90;;;;;;5067409;28;20037;-94
2022/07/07 00:02:55;;;;;;;6.40;1.92;;;14.60;99.90;;;;;;5065554;28;20055;-94
2022/07/07 00:05:22;;;;;;;7.75;2.33;;;14.60;99.90;;;;;;5068037;28;20032;-95
2022/07/07 00:07:48;;;;;;;5.68;2.22;;;14.60;99.90;;;;;;5065753;28;20021;-96
2022/07/07 00:10:13;;;;;;;7.28;1.80;;;14.60;99.90;;;;;;5068744;28;20035;-95
2022/07/07 00:12:39;;;;;;;5.68;1.83;;;14.60;99.90;;;;;;5064148;28;20090;-94
2022/07/07 00:15:06;;;;;;;8.23;2.25;;;14.60;99.90;;;;;;5067857;28;20021;-95
2022/07/07 00:17:32;;;;;;;2.85;1.77;;;14.60;99.90;;;;;;5063818;28;20036;-95
2022/07/07 00:19:58;;;;;;;5.47;2.00;;;14.60;99.90;;;;;;5069325;28;20025;-90
2022/07/07 00:22:23;;;;;;;6.45;1.90;;;14.60;99.90;;;;;;5077139;28;20040;-91
2022/07/07 00:24:49;;;;;;;5.80;1.90;;;14.60;99.90;;;;;;5077060;28;20024;-89
2022/07/07 00:27:15;;;;;;;5.28;1.63;;;14.50;99.90;;;;;;5076787;28;20059;-93
2022/07/07 00:29:43;;;;;;;6.03;1.80;;;14.50;99.90;;;;;;5065782;28;20307;-93
2022/07/07 00:32:10;;;;;;;4.07;1.95;;;14.50;99.90;;;;;;5070967;28;20037;-93
2022/07/07 00:34:35;;;;;;;3.92;1.63;;;14.50;99.90;;;;;;5065604;28;20017;-92
2022/07/07 00:37:01;;;;;;;5.10;1.60;;;14.50;99.90;;;;;;5066554;28;20044;-95
2022/07/07 00:39:27;;;;;;;6.32;1.77;;;14.40;99.90;;;;;;5061975;28;20036;-93
2022/07/07 00:41:53;;;;;;;4.43;1.70;;;14.40;99.90;;;;;;5062862;28;20067;-93
2022/07/07 00:44:19;;;;;;;4.60;2.20;;;14.40;99.90;;;;;;5070674;28;20045;-92
2022/07/07 00:46:46;;;;;;;4.05;1.33;;;14.30;99.90;;;;;;5059812;28;20025;-94
2022/07/07 00:49:13;;;;;;;6.55;1.70;;;14.30;99.90;;;;;;5055753;28;20025;-96
2022/07/07 00:51:41;;;;;;;7.15;1.63;;;14.30;99.90;;;;;;5062060;28;20488;-95
2022/07/07 00:54:08;;;;;;;5.10;1.40;;;14.20;99.90;;;;;;5063027;28;20021;-94
2022/07/07 00:56:34;;;;;;;2.90;1.48;;;14.20;99.90;;;;;;5062635;28;20021;-94
2022/07/07 00:59:02;;;;;;;7.00;1.88;;;14.10;99.90;;;;;;5060513;28;20049;-95
2022/07/07 01:01:29;;;;;;;8.15;1.98;;;14.10;99.90;;;;;;5065967;28;20096;-94
2022/07/07 01:03:55;;;;;;;6.97;1.77;;;14.10;99.90;;;;;;5062375;28;20052;-94
2022/07/07 01:06:21;;;;;;;5.55;1.60;;;14.10;99.90;;;;;;5060596;28;20025;-93
2022/07/07 01:08:47;;;;;;;6.53;1.40;;;14.00;99.90;;;;;;5061939;28;20025;-94
2022/07/07 01:11:13;;;;;;;4.18;1.23;;;14.00;99.90;;;;;;5061878;28;20104;-95
2022/07/07 01:13:39;;;;;;;3.25;1.30;;;14.00;99.90;;;;;;5060463;28;20017;-94
2022/07/07 01:16:05;;;;;;;3.08;0.93;;;13.90;99.90;;;;;;5058778;28;20567;-95
2022/07/07 01:18:31;;;;;;;5.78;1.33;;;13.90;99.90;;;;;;5056141;28;20060;-96
2022/07/07 01:21:01;;;;;;;4.57;1.30;;;13.80;99.90;;;;;;5056294;28;20025;-95
2022/07/07 01:23:27;;;;;;;3.15;1.27;;;13.80;99.90;;;;;;5059466;28;20036;-93
2022/07/07 01:25:53;;;;;;;5.32;1.20;;;13.80;99.90;;;;;;5059321;28;20020;-95
2022/07/07 01:28:19;;;;;;;8.45;2.03;;;13.80;99.90;;;;;;5058006;28;20032;-94
2022/07/07 01:30:44;;;;;;;6.03;1.60;;;13.70;99.90;;;;;;5063709;28;20063;-95
2022/07/07 01:33:10;;;;;;;4.13;1.65;;;13.70;99.90;;;;;;5062332;28;20046;-93
2022/07/07 01:35:36;;;;;;;8.00;1.38;;;13.70;99.90;;;;;;5061613;28;20427;-94
2022/07/07 01:38:01;;;;;;;3.63;0.93;;;13.70;99.90;;;;;;5062985;28;20036;-95
2022/07/07 01:40:27;;;;;;;5.53;1.63;;;13.70;99.90;;;;;;5059889;28;20042;-94
2022/07/07 01:42:53;;;;;;;3.30;1.63;;;13.70;99.90;;;;;;5061440;28;20021;-93
2022/07/07 01:45:19;;;;;;;4.57;1.30;;;13.60;99.90;;;;;;5067750;28;20020;-95
2022/07/07 01:47:45;;;;;;;3.85;1.40;;;13.60;99.90;;;;;;5060880;28;20019;-94
2022/07/07 01:50:11;;;;;;;7.65;1.83;;;13.60;99.90;;;;;;5068127;28;20067;-94
2022/07/07 01:52:37;;;;;;;4.80;1.35;;;13.60;99.90;;;;;;5068251;28;20033;-95
2022/07/07 01:55:03;;;;;;;4.30;1.38;;;13.60;99.90;;;;;;5068275;28;20017;-94
2022/07/07 01:57:29;;;;;;;8.57;2.55;;;13.50;99.90;;;;;;5068082;28;20479;-94
2022/07/07 01:59:55;;;;;;;6.90;1.55;;;13.60;99.90;;;;;;5062122;28;20028;-96
2022/07/07 02:02:21;;;;;;;3.70;1.10;;;13.60;99.90;;;;;;5064754;28;20035;-95
2022/07/07 02:04:46;;;;;;;7.32;2.25;;;13.60;99.90;;;;;;5039660;28;20052;-95
2022/07/07 02:07:12;;;;;;;6.82;1.55;;;13.60;99.90;;;;;;5065609;28;20119;-94
2022/07/07 02:09:38;;;;;;;4.90;1.35;;;13.60;99.90;;;;;;5066791;28;20036;-96
2022/07/07 02:12:05;;;;;;;4.47;1.20;;;13.60;99.90;;;;;;5070132;28;20055;-95
2022/07/07 02:14:31;;;;;;;10.35;1.63;;;13.60;99.90;;;;;;5069524;28;20024;-95
2022/07/07 02:16:57;;;;;;;6.57;1.50;;;13.60;99.90;;;;;;5069853;28;20032;-95
2022/07/07 02:19:23;;;;;;;5.40;1.20;;;13.60;99.90;;;;;;5072723;28;20036;-94
2022/07/07 02:21:49;;;;;;;6.18;2.30;;;13.60;99.90;;;;;;5068383;28;20048;-95
2022/07/07 02:24:16;;;;;;;6.75;1.45;;;13.60;99.90;;;;;;5059113;28;20017;-95
2022/07/07 02:26:41;;;;;;;6.28;1.73;;;13.60;99.90;;;;;;5034353;28;20037;-95
2022/07/07 02:29:07;;;;;;;5.45;1.50;;;13.60;99.90;;;;;;5061549;28;20051;-95
2022/07/07 02:31:33;;;;;;;7.10;1.63;;;13.60;99.90;;;;;;5059526;28;20032;-95
2022/07/07 02:34:00;;;;;;;6.85;1.48;;;13.60;99.90;;;;;;5059564;28;20456;-93
2022/07/07 02:36:25;;;;;;;6.55;1.73;;;13.60;99.90;;;;;;5058823;28;20031;-95
2022/07/07 02:38:51;;;;;;;8.65;1.90;;;13.60;99.90;;;;;;5059815;28;20061;-95
2022/07/07 02:41:19;;;;;;;5.32;1.42;;;13.60;99.90;;;;;;5059851;28;20021;-94
2022/07/07 02:43:45;;;;;;;5.82;1.52;;;13.60;99.90;;;;;;5071158;28;20013;-93
2022/07/07 02:46:10;;;;;;;4.00;1.50;;;13.60;99.90;;;;;;5063827;28;20086;-94
2022/07/07 02:48:37;;;;;;;7.65;1.65;;;13.60;99.90;;;;;;5064304;28;20082;-93
2022/07/07 02:51:03;;;;;;;7.90;1.80;;;13.50;99.90;;;;;;5067462;28;20049;-94
2022/07/07 02:53:29;;;;;;;5.60;1.60;;;13.50;99.90;;;;;;5066138;28;20069;-95
2022/07/07 02:55:54;;;;;;;5.45;1.52;;;13.60;99.90;;;;;;5063013;28;20033;-94
2022/07/07 02:58:22;;;;;;;3.90;2.05;;;13.60;99.90;;;;;;5063968;28;20017;-94
2022/07/07 03:00:48;;;;;;;6.47;1.63;;;13.60;99.90;;;;;;5062478;28;20017;-94
2022/07/07 03:03:14;;;;;;;11.43;2.17;;;13.60;99.90;;;;;;5058961;28;20025;-95
2022/07/07 03:05:40;;;;;;;9.85;1.70;;;13.70;99.90;;;;;;5058769;28;20040;-95
2022/07/07 03:08:06;;;;;;;3.80;1.52;;;13.60;99.90;;;;;;5060580;28;20025;-94
2022/07/07 03:10:32;;;;;;;6.18;1.20;;;13.60;99.90;;;;;;5057044;28;20040;-95
2022/07/07 03:12:58;;;;;;;5.07;1.50;;;13.60;99.90;;;;;;5056714;28;20108;-94
2022/07/07 03:15:23;;;;;;;4.20;1.42;;;13.70;99.90;;;;;;5057847;28;20045;-95
2022/07/07 03:17:51;;;;;;;6.72;1.52;;;13.60;99.90;;;;;;5055699;28;20062;-95
2022/07/07 03:20:18;;;;;;;5.03;1.92;;;13.70;99.90;;;;;;5054577;28;20021;-95
2022/07/07 03:22:44;;;;;;;3.80;1.85;;;13.60;99.90;;;;;;5055677;28;20045;-94
2022/07/07 03:25:10;;;;;;;5.00;1.40;;;13.70;99.90;;;;;;5056431;28;20060;-95
2022/07/07 03:27:36;;;;;;;6.20;1.52;;;13.60;99.90;;;;;;5051628;28;20013;-95
2022/07/07 03:30:03;;;;;;;5.15;1.15;;;13.70;99.90;;;;;;5061879;28;20025;-95
2022/07/07 03:32:30;;;;;;;5.97;1.20;;;13.60;99.90;;;;;;5055899;28;20059;-95
2022/07/07 03:34:55;;;;;;;6.32;1.60;;;13.60;99.90;;;;;;5052699;28;20448;-95
2022/07/07 03:37:21;;;;;;;6.97;1.38;;;13.60;99.90;;;;;;5054584;28;20052;-94
2022/07/07 03:39:47;;;;;;;10.32;1.52;;;13.60;99.90;;;;;;5055286;28;20025;-95
2022/07/07 03:42:13;;;;;;;5.03;1.50;;;13.60;99.90;;;;;;5056463;28;20021;-93
2022/07/07 03:44:39;;;;;;;7.50;1.25;;;13.60;99.90;;;;;;5063271;28;20124;-94
2022/07/07 03:47:05;;;;;;;4.68;1.20;;;13.50;99.90;;;;;;5071140;28;20013;-92
2022/07/07 03:49:31;;;;;;;4.82;1.23;;;13.50;99.90;;;;;;5076824;28;20037;-94
2022/07/07 03:51:58;;;;;;;5.78;1.20;;;13.50;99.90;;;;;;5061501;28;20036;-94
2022/07/07 03:54:24;;;;;;;3.05;1.20;;;13.50;99.90;;;;;;5062591;28;20017;-94
2022/07/07 03:56:52;;;;;;;1.90;1.15;;;13.50;99.90;;;;;;5062827;28;20399;-95
2022/07/07 03:59:17;;;;;;;2.90;1.15;;;13.50;99.90;;;;;;5062818;28;20044;-93
2022/07/07 04:01:45;;;;;;;2.70;1.00;;;13.50;99.90;;;;;;5071304;28;20009;-93
2022/07/07 04:04:12;;;;;;;4.93;1.00;;;13.40;99.90;;;;;;5073439;28;20033;-93
2022/07/07 04:06:38;;;;;;;1.75;1.20;;;13.50;99.90;;;;;;5072806;28;20025;-94
2022/07/07 04:09:04;;;;;;;2.78;1.13;;;13.50;99.90;;;;;;5069177;28;20032;-93
2022/07/07 04:11:31;;;;;;;2.70;0.90;;;13.40;99.90;;;;;;5063394;28;20029;-96
2022/07/07 04:13:56;;;;;;;3.40;1.10;;;13.40;99.90;;;;;;5061072;28;20225;-94
2022/07/07 04:16:22;;;;;;;2.53;1.20;;;13.50;99.90;;;;;;5072204;28;20063;-96
2022/07/07 04:18:47;;;;;;;2.63;0.90;;;13.50;99.90;;;;;;5060024;28;20025;-95
2022/07/07 04:21:13;;;;;;;4.85;1.15;;;13.40;99.90;;;;;;5057773;28;20570;-94
2022/07/07 04:23:39;;;;;;;3.05;1.00;;;13.50;99.90;;;;;;5059713;28;20033;-95
2022/07/07 04:26:05;;;;;;;2.03;1.33;;;13.50;99.90;;;;;;5059334;28;20035;-96
2022/07/07 04:28:30;;;;;;;2.88;1.23;;;13.50;99.90;;;;;;5059571;28;20437;-94
2022/07/07 04:30:57;;;;;;;2.88;1.75;;;13.50;99.90;;;;;;5059599;28;20429;-95
2022/07/07 04:33:23;;;;;;;5.28;1.30;;;13.50;99.90;;;;;;5043543;28;20055;-95
2022/07/07 04:35:48;;;;;;;7.13;1.40;;;13.50;99.90;;;;;;5066071;28;20020;-95
2022/07/07 04:38:14;;;;;;;5.65;1.02;;;13.50;99.90;;;;;;5073980;28;20021;-92
2022/07/07 04:40:40;;;;;;;4.63;1.23;;;13.60;99.90;;;;;;5097473;28;20017;-92
2022/07/07 04:43:07;;;;;;;5.30;1.40;;;13.60;99.90;;;;;;5079700;28;20021;-91
2022/07/07 04:45:33;;;;;;;5.20;1.42;;;13.60;99.90;;;;;;5080068;28;20009;-91
2022/07/07 04:47:59;;;;;;;3.88;1.25;;;13.60;99.90;;;;;;5079865;28;20031;-94
2022/07/07 04:50:25;;;;;;;4.50;1.50;;;13.60;99.90;;;;;;5075035;28;20036;-95
2022/07/07 04:52:52;;;;;;;4.57;1.70;;;13.70;99.90;;;;;;5071939;28;20036;-96
2022/07/07 04:55:18;;;;;;;3.58;1.30;;;13.70;99.90;;;;;;5060735;28;20103;-95
2022/07/07 04:57:44;;;;;;;5.07;1.48;;;13.70;99.90;;;;;;5036281;28;20033;-96
2022/07/07 05:00:10;;;;;;;8.52;1.70;;;13.70;99.90;;;;;;5067319;28;20100;-95
2022/07/07 05:02:36;;;;;;;5.03;2.13;;;13.70;99.90;;;;;;5079009;28;20021;-96
2022/07/07 05:05:02;;;;;;;5.40;1.85;;;13.70;99.90;;;;;;5062172;28;20040;-95
2022/07/07 05:07:28;;;;;;;4.30;1.65;;;13.70;99.90;;;;;;5063560;28;20016;-95
2022/07/07 05:09:54;;;;;;;4.35;1.55;;;13.80;99.90;;;;;;5066377;28;20036;-95
2022/07/07 05:12:19;;;;;;;2.58;1.40;;;13.80;99.90;;;;;;5068668;28;20012;-94
2022/07/07 05:14:47;;;;;;;5.25;1.60;;;13.80;99.90;;;;;;5077413;28;20147;-94
2022/07/07 05:17:13;;;;;;;4.50;1.65;;;13.80;99.90;;;;;;5058757;28;20038;-95
2022/07/07 05:19:38;;;;;;;5.25;1.58;;;13.90;99.90;;;;;;5058026;28;20021;-95
2022/07/07 05:22:04;;;;;;;3.92;1.58;;;13.90;99.90;;;;;;5057647;28;20099;-95
2022/07/07 05:24:30;;;;;;;7.28;1.80;;;13.90;99.90;;;;;;5061016;28;20021;-95
2022/07/07 05:26:55;;;;;;;4.32;1.17;;;13.90;99.90;;;;;;5061162;28;20448;-94
2022/07/07 05:29:22;;;;;;;4.28;1.55;;;13.90;99.90;;;;;;5074138;28;20028;-92
2022/07/07 05:31:48;;;;;;;8.05;2.40;;;13.90;99.90;;;;;;5071609;28;20040;-96
2022/07/07 05:34:15;;;;;;;5.80;1.90;;;13.90;99.90;;;;;;5075019;28;20032;-95
2022/07/07 05:36:41;;;;;;;4.25;1.77;;;14.00;99.90;;;;;;5078135;28;20033;-90
2022/07/07 05:39:06;;;;;;;3.65;1.40;;;14.00;99.90;;;;;;5076364;28;20109;-96
2022/07/07 05:41:32;;;;;;;5.30;1.90;;;14.00;99.90;;;;;;5068523;28;20029;-95
2022/07/07 05:43:58;;;;;;;2.45;1.40;;;14.00;99.90;;;;;;5055451;28;20021;-95
2022/07/07 05:46:33;;;;;;;3.65;1.58;;;14.00;99.90;;;;;;5072839;28;20025;-96
2022/07/07 05:48:59;;;;;;;5.15;1.67;;;14.10;99.90;;;;;;5062218;28;20032;-95
2022/07/07 05:51:24;;;;;;;2.88;1.40;;;14.10;99.90;;;;;;5062605;28;20474;-94
2022/07/07 05:53:50;;;;;;;3.80;1.92;;;14.20;99.90;;;;;;5057653;28;20040;-95
2022/07/07 05:56:16;;;;;;;6.68;1.83;;;14.10;99.90;;;;;;5056921;28;20032;-96
2022/07/07 05:58:41;;;;;;;3.28;1.20;;;14.20;99.90;;;;;;5059246;28;20025;-94
2022/07/07 06:01:07;;;;;;;5.72;1.42;;;14.20;99.90;;;;;;5057524;28;20031;-95
2022/07/07 06:03:33;;;;;;;2.40;1.35;;;14.30;99.90;;;;;;5057095;28;20020;-93
2022/07/07 06:05:59;;;;;;;3.95;1.67;;;14.30;99.90;;;;;;5051597;28;20025;-94
2022/07/07 06:08:25;;;;;;;2.00;1.25;;;14.30;99.90;;;;;;5058361;28;20039;-96
2022/07/07 06:10:51;;;;;;;3.70;1.15;;;14.40;99.90;;;;;;5056295;28;20025;-94
2022/07/07 06:13:17;;;;;;;5.53;1.30;;;14.40;99.90;;;;;;5056935;28;20447;-94
2022/07/07 06:15:43;;;;;;;3.58;1.38;;;14.40;99.90;;;;;;5057783;28;20056;-94
2022/07/07 06:18:09;;;;;;;2.72;1.00;;;14.50;99.90;;;;;;5057671;28;20025;-93
2022/07/07 06:20:35;;;;;;;2.30;0.95;;;14.50;99.90;;;;;;5057301;28;20017;-93
2022/07/07 06:23:00;;;;;;;4.82;1.02;;;14.50;99.90;;;;;;5057080;28;20053;-95
2022/07/07 06:25:26;;;;;;;3.03;1.30;;;14.60;99.90;;;;;;5058239;28;20464;-94
2022/07/07 06:27:52;;;;;;;4.00;0.98;;;14.60;99.90;;;;;;5057404;28;20025;-94
2022/07/07 06:30:18;;;;;;;1.38;0.75;;;14.60;99.90;;;;;;5056271;28;20499;-95
2022/07/07 06:32:44;;;;;;;3.75;1.05;;;14.60;99.90;;;;;;5057867;28;20025;-95
2022/07/07 06:35:10;;;;;;;4.63;1.05;;;14.70;99.90;;;;;;5053807;28;20118;-95
2022/07/07 06:37:36;;;;;;;9.90;1.83;;;14.70;99.90;;;;;;5059566;28;20028;-94
2022/07/07 06:40:02;;;;;;;7.10;1.60;;;14.80;99.90;;;;;;5046831;28;20033;-96
2022/07/07 06:42:28;;;;;;;4.25;1.50;;;14.80;99.90;;;;;;5067140;28;20025;-95
2022/07/07 06:44:54;;;;;;;1.60;0.90;;;14.80;99.90;;;;;;5051635;28;20132;-96
2022/07/07 06:47:20;;;;;;;3.47;1.33;;;14.80;99.90;;;;;;5066770;28;20039;-95
2022/07/07 06:49:45;;;;;;;1.95;1.10;;;14.90;99.90;;;;;;5039978;28;20108;-95
2022/07/07 06:52:12;;;;;;;6.80;1.35;;;14.90;99.90;;;;;;5053123;28;20487;-95
2022/07/07 06:54:38;;;;;;;5.18;1.52;;;15.00;99.90;;;;;;5055044;28;20027;-87
2022/07/07 06:57:06;;;;;;;3.25;0.93;;;15.10;99.90;;;;;;5053753;28;20038;-93
2022/07/07 06:59:33;;;;;;;2.50;1.30;;;15.10;99.90;;;;;;5036257;28;20026;-94
2022/07/07 07:01:59;;;;;;;2.08;1.20;;;15.20;99.90;;;;;;5053847;28;20083;-94
2022/07/07 07:04:25;;;;;;;2.33;1.25;;;15.30;99.90;;;;;;5053947;28;20434;-93
2022/07/07 07:06:52;;;;;;;3.83;1.70;;;15.30;99.90;;;;;;5045974;28;20112;-94
2022/07/07 07:09:18;;;;;;;4.40;1.02;;;15.30;99.90;;;;;;5044077;28;20118;-95
2022/07/07 07:11:44;;;;;;;1.60;1.00;;;15.40;99.90;;;;;;5047362;28;20033;-94
2022/07/07 07:14:14;;;;;;;3.00;1.20;;;15.40;99.90;;;;;;5052222;28;20116;-95
2022/07/07 07:16:42;;;;;;;4.13;1.50;;;15.50;99.90;;;;;;5052786;28;20102;-95
2022/07/07 07:19:08;;;;;;;1.50;0.88;;;15.60;99.90;;;;;;5048950;28;20029;-94
2022/07/07 07:21:37;;;;;;;6.13;1.17;;;15.70;99.90;;;;;;5051641;28;20070;-95
2022/07/07 07:24:03;;;;;;;3.72;1.00;;;15.70;99.90;;;;;;5048733;28;20032;-93
2022/07/07 07:26:29;;;;;;;2.15;1.02;;;15.80;99.90;;;;;;5052444;28;20403;-95
2022/07/07 07:28:55;;;;;;;5.78;1.30;;;15.90;99.90;;;;;;5042527;28;20132;-94
2022/07/07 07:31:21;;;;;;;2.80;0.80;;;16.00;99.90;;;;;;5076731;28;20438;-94
2022/07/07 07:33:48;;;;;;;2.58;0.90;;;16.10;99.90;;;;;;5076176;28;20028;-94
2022/07/07 07:36:13;;;;;;;3.58;1.70;;;16.10;99.90;;;;;;5058061;28;20037;-95
2022/07/07 07:38:40;;;;;;;1.45;0.93;;;16.30;99.90;;;;;;5074926;28;20040;-95
2022/07/07 07:41:08;;;;;;;2.72;1.17;;;16.30;99.90;;;;;;5057951;28;20021;-94
2022/07/07 07:43:34;;;;;;;2.20;1.10;;;16.50;99.90;;;;;;5077381;28;20024;-94
2022/07/07 07:46:00;;;;;;;4.72;1.02;;;16.50;99.90;;;;;;5076485;28;20033;-94
2022/07/07 07:48:26;;;;;;;3.03;1.00;;;16.60;99.90;;;;;;5059261;28;20536;-94
2022/07/07 07:50:51;;;;;;;3.63;0.88;;;16.70;99.90;;;;;;5057255;28;20483;-92
2022/07/07 07:53:17;;;;;;;1.67;0.98;;;16.60;99.90;;;;;;5057909;28;20111;-92
2022/07/07 07:55:44;;;;;;;1.20;0.65;;;16.70;99.90;;;;;;5075447;28;20378;-95
2022/07/07 07:58:10;;;;;;;4.03;0.70;;;16.70;99.90;;;;;;5076445;28;20521;-93
2022/07/07 08:00:38;;;;;;;2.03;0.90;;;16.70;99.90;;;;;;5073995;28;20024;-92
2022/07/07 08:03:04;;;;;;;5.68;1.02;;;16.70;99.90;;;;;;5058277;28;20142;-93
2022/07/07 08:05:30;;;;;;;3.05;0.73;;;16.70;99.90;;;;;;5075894;28;20062;-93
2022/07/07 08:07:56;;;;;;;3.67;0.90;;;16.80;99.90;;;;;;5059044;28;20028;-94
2022/07/07 08:10:22;;;;;;;2.05;0.77;;;16.90;99.90;;;;;;5075880;28;20031;-93
2022/07/07 08:12:48;;;;;;;1.55;0.80;;;16.90;99.90;;;;;;5059037;28;20037;-93
2022/07/07 08:15:15;;;;;;;0.50;0.45;;;17.00;99.90;;;;;;5057905;28;20032;-95
2022/07/07 08:17:42;;;;;;;1.35;0.60;;;17.00;99.90;;;;;;5057828;28;20035;-93
2022/07/07 08:20:08;;;;;;;1.25;0.80;;;17.10;99.90;;;;;;5057572;28;20066;-94
2022/07/07 08:22:35;;;;;;;2.53;0.85;;;17.20;99.90;;;;;;5075361;28;20044;-94
2022/07/07 08:25:01;;;;;;;3.33;0.70;;;17.30;99.90;;;;;;5057700;28;20099;-94
2022/07/07 08:27:26;;;;;;;1.63;0.47;;;17.30;99.90;;;;;;5058237;28;20134;-94
2022/07/07 08:29:52;;;;;;;1.27;0.60;;;17.40;99.90;;;;;;5057308;28;20043;-93
2022/07/07 08:32:18;;;;;;;1.88;0.50;;;17.40;99.90;;;;;;5057788;28;20036;-96
2022/07/07 08:34:46;;;;;;;2.70;0.70;;;17.50;99.90;;;;;;5076281;28;20048;-95
2022/07/07 08:37:12;;;;;;;4.05;0.90;;;17.50;99.90;;;;;;5076902;28;20055;-95
2022/07/07 08:39:39;;;;;;;1.20;0.50;;;17.50;99.90;;;;;;5063639;28;20360;-94
2022/07/07 08:42:06;;;;;;;0.55;0.43;;;17.60;99.90;;;;;;5072288;28;20051;-94
2022/07/07 08:44:32;;;;;;;4.30;0.73;;;17.70;99.90;;;;;;5078572;28;20028;-94
2022/07/07 08:46:58;;;;;;;0.98;0.60;;;17.70;99.90;;;;;;5075541;28;20136;-93
2022/07/07 08:49:26;;;;;;;1.67;0.70;;;17.80;99.90;;;;;;5063432;28;20066;-93
2022/07/07 08:51:52;;;;;;;2.10;0.52;;;17.80;99.90;;;;;;5086001;28;20029;-91
2022/07/07 08:54:17;;;;;;;1.95;0.40;;;17.90;99.90;;;;;;5077457;28;20009;-93
2022/07/07 08:56:44;;;;;;;1.80;0.70;;;17.90;99.90;;;;;;5078849;28;20086;-89
2022/07/07 08:59:13;;;;;;;0.60;0.38;;;18.10;99.90;;;;;;5078422;28;20032;-92
2022/07/07 09:01:39;;;;;;;2.55;0.50;;;18.10;99.90;;;;;;5079724;28;20021;-92
2022/07/07 09:04:05;;;;;;;1.38;0.50;;;18.20;99.90;;;;;;5096547;28;20023;-94
2022/07/07 09:06:32;;;;;;;0.90;0.47;;;18.20;99.90;;;;;;5063472;28;20029;-93
2022/07/07 09:08:58;;;;;;;2.72;0.40;;;18.30;99.90;;;;;;5078700;28;20107;-93
2022/07/07 09:11:24;;;;;;;0.70;0.60;;;18.40;99.90;;;;;;5073831;28;20032;-93
2022/07/07 09:13:50;;;;;;;2.80;0.55;;;18.50;99.90;;;;;;5075626;28;20475;-93
2022/07/07 09:16:17;;;;;;;1.13;0.38;;;18.60;99.90;;;;;;5076609;28;20032;-93
2022/07/07 09:18:47;;;;;;;1.05;0.50;;;18.70;98.80;;;;;;5057173;28;20025;-94
2022/07/07 09:21:29;;;;;;;0.47;0.30;;;18.80;98.10;;;;;;5057534;28;20025;-93
2022/07/07 09:23:58;;;;;;;2.70;0.45;;;19.00;97.20;;;;;;5057637;28;20059;-94
2022/07/07 09:26:41;;;;;;;3.45;0.60;;;19.10;96.70;;;;;;5057754;28;20028;-94
2022/07/07 09:29:11;;;;;;;0.88;0.40;;;19.20;96.30;;;;;;5078728;28;20025;-93
2022/07/07 09:31:58;;;;;;;2.13;0.60;;;19.20;95.80;;;;;;5062752;28;20028;-94
2022/07/07 09:34:33;;;;;;;1.40;0.50;;;19.20;95.00;;;;;;5071365;28;20020;-93
2022/07/07 09:39:56;;;;;;;1.15;0.50;;;19.30;94.40;;;;;;5076882;28;20058;-93
2022/07/07 09:42:27;;;;;;;1.35;0.38;;;19.60;93.80;;;;;;5059516;28;20068;-93
2022/07/07 09:44:55;;;;;;;0.25;0.20;;;19.80;93.50;;;;;;5060529;28;20050;-94
2022/07/07 09:47:24;;;;;;;2.42;0.30;;;19.90;92.80;;;;;;5060322;28;20029;-95
2022/07/07 09:50:07;;;;;;;4.25;0.40;;;19.90;92.00;;;;;;5059559;28;20032;-94
2022/07/07 09:52:35;;;;;;;1.55;0.40;;;20.10;91.70;;;;;;5060356;28;20037;-96
2022/07/07 09:55:03;;;;;;;0.70;0.50;;;20.30;91.10;;;;;;5077254;28;20032;-94
2022/07/07 09:57:30;;;;;;;2.97;0.68;;;20.40;90.40;;;;;;5057876;28;20035;-92
2022/07/07 09:59:55;;;;;;;1.73;0.85;;;20.50;90.20;;;;;;5059409;28;20058;-95
2022/07/07 10:02:26;;;;;;;1.10;0.50;;;20.60;89.80;;;;;;5059054;28;20033;-93
2022/07/07 10:04:54;;;;;;;0.65;0.47;;;20.70;88.80;;;;;;5058289;28;20034;-94
2022/07/07 10:07:25;;;;;;;0.50;0.40;;;20.90;87.80;;;;;;5057870;28;20025;-94
2022/07/07 10:09:56;;;;;;;1.75;0.60;;;21.10;85.90;;;;;;5056861;28;20031;-94
2022/07/07 10:12:24;;;;;;;0.82;0.47;;;21.30;84.50;;;;;;5057869;28;20071;-93
2022/07/07 10:14:58;;;;;;;1.10;0.40;;;21.60;83.70;;;;;;5059938;28;20404;-94
2022/07/07 10:17:26;;;;;;;0.40;0.40;;;21.70;82.20;;;;;;5080993;28;20027;-93
2022/07/07 10:19:52;;;;;;;0.88;0.40;;;22.00;81.30;;;;;;5061927;28;20032;-93
2022/07/07 10:22:21;;;;;;;1.55;0.30;;;22.10;80.10;;;;;;5061659;28;20479;-94
2022/07/07 10:24:47;;;;;;;1.20;0.43;;;22.30;79.50;;;;;;5061213;28;20024;-95
2022/07/07 10:27:15;;;;;;;0.40;0.28;;;22.50;77.90;;;;;;5061520;28;20031;-93
2022/07/07 10:30:03;;;;;;;0.85;0.50;;;22.60;76.90;;;;;;5065350;28;20033;-93
2022/07/07 10:32:50;;;;;;;2.72;0.45;;;22.90;75.80;;;;;;5063903;28;20037;-95
2022/07/07 10:35:17;;;;;;;2.47;0.50;;;22.90;74.50;;;;;;5090228;28;20072;-91
2022/07/07 10:37:51;;;;;;;1.67;0.63;;;22.90;73.90;;;;;;5092647;28;20021;-93
2022/07/07 10:40:25;;;;;;;0.45;0.40;;;22.80;73.70;;;;;;5066260;28;20024;-92
2022/07/07 10:42:57;;;;;;;1.48;0.57;;;22.80;74.20;;;;;;5088631;28;20025;-95
2022/07/07 10:45:23;;;;;;;0.50;0.40;;;22.90;73.90;;;;;;5072019;28;20039;-93
2022/07/07 10:47:49;;;;;;;0.47;0.30;;;23.10;73.90;;;;;;5081617;28;20012;-93
2022/07/07 10:50:34;;;;;;;0.43;0.32;;;23.30;73.30;;;;;;5081143;28;20059;-90
2022/07/07 10:53:00;;;;;;;0.93;0.40;;;23.50;71.70;;;;;;5073568;28;20110;-94
2022/07/07 10:55:55;;;;;;;0.70;0.43;;;23.60;71.50;;;;;;5066692;28;20017;-93
2022/07/07 10:58:43;;;;;;;1.42;0.60;;;23.70;70.40;;;;;;5065764;28;20025;-94
2022/07/07 11:01:09;;;;;;;0.63;0.43;;;23.70;70.40;;;;;;5064652;28;20032;-93
2022/07/07 11:03:39;;;;;;;1.27;0.30;;;23.70;70.00;;;;;;5068503;28;20043;-94
2022/07/07 11:06:05;;;;;;;0.80;0.43;;;23.80;69.50;;;;;;5063179;28;20028;-94
2022/07/07 11:08:36;;;;;;;2.38;0.60;;;24.00;69.20;;;;;;5063563;28;20127;-96
2022/07/07 11:11:04;;;;;;;1.27;0.47;;;24.10;68.60;;;;;;5068117;28;20537;-94
2022/07/07 11:13:42;;;;;;;3.55;0.68;;;24.10;68.30;;;;;;5077876;28;20025;-93
2022/07/07 11:16:24;;;;;;;1.05;0.68;;;24.10;68.10;;;;;;5028005;28;20033;-92
2022/07/07 11:18:59;;;;;;;0.73;0.50;;;24.20;68.30;;;;;;5061833;28;20518;-93
2022/07/07 11:21:42;;;;;;;0.73;0.30;;;24.10;68.20;;;;;;5060460;28;20029;-92
2022/07/07 11:24:23;;;;;;;5.68;0.55;;;24.10;68.10;;;;;;5060204;28;20048;-93
2022/07/07 11:26:56;;;;;;;;;;;23.90;68.00;;;;;;5060105;28;20114;-92
2022/07/07 11:29:22;;;;;;;1.85;0.52;;;23.90;68.10;;;;;;5060568;28;19975;-96
2022/07/07 11:31:48;;;;;;;1.35;0.50;;;24.10;68.40;;;;;;5060320;28;20540;-93
2022/07/07 11:34:14;;;;;;;1.58;0.40;;;24.30;68.40;;;;;;5060410;28;20068;-94
2022/07/07 11:36:40;;;;;;;1.95;0.40;;;24.60;67.90;;;;;;5060233;28;20062;-93
2022/07/07 11:39:09;;;;;;;0.98;0.50;;;24.60;67.10;;;;;;5078157;28;20127;-94
2022/07/07 11:41:44;;;;;;;1.00;0.45;;;24.40;66.90;;;;;;5060519;28;20120;-93
2022/07/07 11:44:22;;;;;;;2.65;0.68;;;24.20;66.60;;;;;;5064909;28;20425;-92
2022/07/07 11:46:49;;;;;;;1.27;0.50;;;24.10;67.10;;;;;;5078691;28;20020;-95
2022/07/07 11:49:16;;;;;;;1.98;0.60;;;23.90;67.60;;;;;;5064187;28;20028;-94
2022/07/07 11:51:44;;;;;;;1.27;0.60;;;23.70;67.80;;;;;;5078058;28;20024;-94
2022/07/07 11:54:10;;;;;;;2.47;0.70;;;23.70;68.10;;;;;;5076984;28;20158;-95
2022/07/07 11:56:37;;;;;;;1.23;0.63;;;23.70;68.20;;;;;;5076716;28;20047;-92
2022/07/07 11:59:04;;;;;;;1.80;0.68;;;23.50;68.50;;;;;;5059738;28;20483;-94
2022/07/07 12:01:34;;;;;;;1.02;0.50;;;23.50;68.90;;;;;;5059732;28;20467;-94
2022/07/07 12:04:17;;;;;;;2.28;0.75;;;23.70;69.00;;;;;;5063858;28;20021;-93
2022/07/07 12:06:44;;;;;;;1.75;0.65;;;23.70;68.40;;;;;;5062620;28;20482;-92
2022/07/07 12:09:10;;;;;;;2.20;0.70;;;23.80;68.60;;;;;;5064020;28;20024;-95
2022/07/07 12:11:38;;;;;;;3.13;0.63;;;24.10;68.20;;;;;;5063453;28;20035;-96
2022/07/07 12:14:05;;;;;;;2.92;0.75;;;24.30;67.80;;;;;;5081579;28;20017;-92
2022/07/07 12:17:01;;;;;;;2.10;0.77;;;24.10;67.70;;;;;;5088649;28;20036;-93
2022/07/07 12:19:27;;;;;;;3.53;0.60;;;23.90;68.30;;;;;;5054102;28;20029;-94
2022/07/07 12:21:53;;;;;;;3.58;1.00;;;24.00;68.50;;;;;;5062827;28;20032;-94
2022/07/07 12:24:23;;;;;;;5.40;1.15;;;24.10;68.30;;;;;;5085299;28;20104;-94
2022/07/07 12:26:51;;;;;;;1.95;0.90;;;24.30;68.50;;;;;;5064883;28;20058;-94
2022/07/07 12:29:22;;;;;;;3.20;1.00;;;24.50;68.70;;;;;;5074509;28;20029;-95
2022/07/07 12:31:49;;;;;;;2.55;1.00;;;24.70;68.40;;;;;;5077908;28;20020;-86
2022/07/07 12:34:18;;;;;;;3.92;1.08;;;24.90;67.50;;;;;;5080602;28;20023;-85
2022/07/07 12:36:49;;;;;;;2.50;0.98;;;24.90;67.00;;;;;;5092560;28;20046;-94
2022/07/07 12:39:15;;;;;;;3.65;1.13;;;24.70;67.00;;;;;;5088691;28;20032;-93
2022/07/07 12:41:42;;;;;;;3.33;0.90;;;24.50;67.30;;;;;;5089058;28;20031;-92
2022/07/07 12:44:19;;;;;;;2.72;1.02;;;24.50;67.50;;;;;;5091371;28;20040;-91
2022/07/07 12:46:45;;;;;;;4.75;1.10;;;24.50;67.60;;;;;;5072335;28;20092;-95
2022/07/07 12:49:12;;;;;;;3.33;1.15;;;24.80;67.70;;;;;;5087823;28;20032;-94
2022/07/07 12:51:45;;;;;;;4.10;1.20;;;25.00;67.30;;;;;;5063108;28;20017;-93